Boulder City, Nevada Weather observations

Data are for observation ending at time listed.
 Day   Time    Ave.   Ave.  Ave.  Vector   Max.   Stn.    Total    Solar   Ave.  
  of    of     Air    Rel.  Wind   Wind    Wind   Baro.  Precip.   Rad.    Soil  
Year   Day     Temp.  Hum.  Speed  Dir.    Gust   Pres.                    Temp. 
2026   (PST)    F      %     mph   deg.    mph     mb.     in.     W/m2     F   
------------------------------------------------------------------------------
 244    9:20   87.3    30   13.1   164     23.6   932.4    0.00     732    93.8
 244    9:30   88.4    28   10.8   168     19.9   932.3    0.00     758    95.3
 244    9:40   88.7    27   12.1   159     22.4   932.3    0.00     501    94.4
 244    9:50   88.5    26   12.8   160     27.2   932.2    0.00      72    94.0
 244   10:00   89.3    24   12.6   159     23.3   932.0    0.00     351    95.3
 244   10:10   89.9    24   12.8   176     22.6   932.1    0.00     510    96.0
 244   10:20   89.7    24   13.2   160     23.2   932.1    0.00     569    97.5
 244   10:30   90.4    22   11.1   157     23.2   932.0    0.00     580    106.4
 244   10:40   91.1    22   10.9   173     21.0   932.2    0.00     854    97.1
 244   10:50   91.3    22   10.2   160     15.3   932.1    0.00     935    93.8
 244   11:00  99999.0   99999  99999.0   99999    99999.0  99999.0   99999.00   99999    99999.0
 244   11:10  99999.0   99999  99999.0   99999    99999.0  99999.0   99999.00   99999    99999.0
 244   11:20  99999.0   99999  99999.0   99999    99999.0  99999.0   99999.00   99999    99999.0
 244   11:30   92.5    22    8.4   170     15.3  99999.0    0.00     890    97.1
 244   11:40   92.7    20   12.0   162     20.8  99999.0    0.00     855    96.2
 244   11:50   93.4    18   12.0   156     28.7   914.1    0.00     750    95.8
 244   12:00   93.2    19    9.6   141     17.0   869.3    0.00     406    99.5
 244   12:10   93.7    20   12.4   158     21.2   917.7    0.00     876    101.8
 244   12:20   94.9    16   14.6   165     22.1   887.6    0.00     858    102.2
 244   12:30   94.4    16   12.3   158     22.1   916.2    0.00     888    102.4
 244   12:40   94.5    16   12.8   166     26.2   916.0    0.00   99999    109.3
 244   12:50   95.0    16   12.0   168     25.1   916.0    0.00   99999    113.9
 244   13:00   94.3    18    9.5   158     19.1   915.9    0.00   99999    110.1
 244   13:10   96.1    13   12.2   177     23.4   915.8    0.00   99999    108.1
 244   13:20   96.5    12   11.2   191     19.3   915.7    0.00   99999    107.0
 244   13:30   95.7    11    8.9   216     18.3   916.1    0.00   99999    106.1
 244   13:40   96.7    11    9.6   188     23.6   915.5    0.00   99999    105.7
 244   13:50   97.4    10   11.0   194     22.5   911.1    0.00   99999    105.1
 244   14:00   97.5    10   11.1   181     21.1   916.9    0.00   99999    104.9
 244   14:10   97.4    10   11.0   194     18.7   885.1    0.00   99999    104.6
 244   14:20   97.3    10   10.9   191     20.0   915.3    0.00   99999    104.5
 244   14:30   96.9     9    9.5   207     16.1   915.4    0.00   99999    104.4
 244   14:40   97.2     9   10.6   202     19.6   915.2    0.00   99999    104.3
 244   14:50   97.3     9   11.6   185     21.1   915.2    0.00   99999    104.3
 244   15:00   97.1     9   10.2   204     20.3   915.2    0.00   99999    104.2
 244   15:10   97.2     9   10.9   198     19.1   915.0    0.00   99999    104.1
 244   15:20   96.9     9   13.8   194     22.9   915.1    0.00   99999    103.8
 244   15:30   96.9     9   10.3   188     20.0   914.9    0.00   99999    103.5
 244   15:40   97.1     9   12.9   196     22.6   914.8    0.00   99999    103.2
 244   15:50   96.6     9   11.0   208     23.3   914.8    0.00   99999    102.8
 244   16:00   96.3     9   10.6   209     18.8   887.8    0.00   99999    102.5
 244   16:10   95.7     9   10.9   213     21.8   914.7    0.00   99999    102.2
 244   16:20   95.8     9   10.7   207     19.1   914.6    0.00   99999    101.9
 244   16:30   95.4     9    9.3   217     17.2   914.6    0.00   99999    101.7
 244   16:40   95.7     9    7.9   203     15.6   914.5    0.00   99999    101.6
 244   16:50   95.3     9    7.8   213     14.5   914.6    0.00   99999    101.4
 244   17:00   94.6    10   10.1   210     17.0   914.6    0.00   99999    101.2
 244   17:10   94.6    10    9.8   195     16.1   914.2    0.00   99999    101.0
 244   17:20   94.4    10    8.5   202     14.2   914.2    0.00   99999    100.8
 244   17:30   93.6    10    7.4   198     14.2   914.0    0.00   99999    100.6
 244   17:40   93.4    11    8.6   198     15.6   913.8    0.00   99999    100.4
 244   17:50   93.2    12    9.0   192     16.4   913.7    0.00   99999    100.2
 244   18:00   92.9    11    8.2   186     17.2   913.5    0.00   99999    99.9
 244   18:10   92.4    11    7.0   192     16.8   913.5    0.00   99999    99.6
 244   18:20   91.7    11    3.7   209      7.7   913.5    0.00   99999    99.4
 244   18:30   91.1    12    3.5   193      6.1   913.5    0.00   99999    99.2
 244   18:40   90.6    12    3.1   174      5.7   913.5    0.00   99999    99.1
 244   18:50   90.0    12    3.2   151      5.3   913.5    0.00   99999    98.7
 244   19:00   89.7    12    3.3   173      6.5   913.5    0.00   99999    98.5
 244   19:10   88.4    13    2.8   246      4.3   913.6    0.00   99999    98.3
 244   19:20   87.7    13    3.4   194      6.6   913.7    0.00   99999    98.1
 244   19:30   88.0    13    4.7   191      8.6   913.8    0.00   99999    97.8
 244   19:40   87.9    13    4.2   202      7.2   913.9    0.00   99999    97.6
 244   19:50   87.9    12    4.6   193     10.2   914.0    0.00   99999    97.3
 244   20:00   87.8    13    6.1   191     11.2   914.1    0.00   99999    97.0
 244   20:10   88.1    12    7.5   190     13.8   914.3    0.00   99999    96.7
 244   20:20   87.9    12    6.4   198     12.3   914.4    0.00   99999    96.5
 244   20:30   87.1    13    5.9   209      9.6   914.5    0.00   99999    96.2
 244   20:40   85.9    13    4.3   230      7.8   914.6    0.00   99999    96.0
 244   20:50   84.5    14    5.7   233      8.5   914.6    0.00   99999    95.8
 244   21:00   84.5    14    6.9   224     13.2   914.7    0.00   99999    95.6
 244   21:10   84.2    13    5.9   221      9.3   914.7    0.00   99999    95.3
 244   21:20   83.1    14    5.5   231      8.1   880.7    0.00   99999    95.1
 244   21:30   82.5    13    6.0   233      8.6   914.7    0.00   99999    94.9
 244   21:40   82.2    13    6.1   233      9.0   914.7    0.00   99999    94.7
 244   21:50   82.4    12    7.7   234     13.9   914.7    0.00   99999    94.5
 244   22:00   82.4    12    6.5   232     10.4   914.6    0.00   99999    94.2
 244   22:10   82.1    12    5.8   228      8.9   914.7    0.00   99999    94.0
 244   22:20   82.0    12    5.7   226      8.0   914.7    0.00   99999    93.8
 244   22:30   82.1    12    6.6   224     10.2   914.6    0.00   99999    93.6
 244   22:40   81.5    12    7.2   229     10.5   914.7    0.00   99999    93.3
 244   22:50   81.2    12    7.4   230     11.1   914.7    0.00   99999    93.2
 244   23:00   81.2    12    7.6   227     11.8   914.7    0.00   99999    93.0
 244   23:10   80.8    12    6.5   228      9.9   914.7    0.00   99999    92.7
 244   23:20   80.6    12    6.3   226     10.3   914.7    0.00   99999    92.6
 244   23:30   80.4    12    6.7   228     13.7   887.7    0.00   99999    92.3
 244   23:40   80.5    12    7.6   232     11.2   914.8    0.00   99999    92.2
 244   23:50   80.2    12    7.2   231     12.6   914.9    0.00   99999    91.9
 245    0:00   80.0    12    8.3   239     14.5   916.2    0.00   99999    91.8
 245    0:10   80.0    12    8.1   231     12.9   873.9    0.00   99999    91.5
 245    0:20   79.6    13    7.6   231     12.3   914.9    0.00    3664    91.3
 245    0:30   79.6    13    8.6   235     14.5   914.9    0.00    3689    91.2
 245    0:40   79.7    13    8.6   233     14.2   895.8    0.00    3606    90.9
 245    0:50   79.6    13    8.4   233     12.9   879.9    0.00    3471    90.8
 245    1:00   79.3    13    8.8   231     12.9   914.7    0.00    3696    90.6
 245    1:10   79.2    13    8.3   231     13.2   914.8    0.00    3697    90.4
 245    1:20   78.8    13    7.0   223     12.1   892.9    0.00    3574    90.2
 245    1:30   78.5    13    5.6   207     10.1   897.9    0.00    3624    90.2
 245    1:40   78.0    13    5.5   205     10.8   914.8    0.00    3703    90.1
 245    1:50   78.1    13    6.3   212     11.5   914.7    0.00    3700    89.9
 245    2:00   78.2    13    8.4   224     13.4   914.7    0.00    3703    89.8
 245    2:10   78.2    13    9.1   230     13.9   914.7    0.00    3704    89.6
 245    2:20   77.9    13    9.4   225     14.3   914.7    0.00    3698    89.5
 245    2:30   77.8    13    8.3   226     12.1   914.8    0.00    3700    89.3
 245    2:40   77.8    12    8.9   219     12.5   914.9    0.00    3706    89.2
 245    2:50   77.5    12    6.7   206     11.2   914.8    0.00    3707    89.0
 245    3:00   77.2    13    6.6   205     11.4   914.7    0.00    3707    88.9
 245    3:10   77.1    13    6.1   211      9.1   914.7    0.00    3708    88.8
 245    3:20   76.1    13    6.4   224     11.3   914.8    0.00    3701    88.6
 245    3:30   75.4    13    5.7   209     10.3   914.9    0.00    3698    88.6
 245    3:40   74.7    13    5.0   184      9.4   914.8    0.00    3695    88.4
 245    3:50   74.0    13    4.2   198      6.6   914.9    0.00    3697    88.3
 245    4:00   73.7    13    5.2   203      9.1   914.9    0.00    3715    88.1
 245    4:10   74.5    12    5.6   208      9.3   914.9    0.00    3716    88.0
 245    4:20   74.1    12    5.9   220      8.3   914.8    0.00    3710    87.9
 245    4:30   74.2    12    5.6   214      8.9   914.8    0.00    3717    87.7
 245    4:40   73.6    12    4.7   192      7.9   914.8    0.00    3717    87.6
 245    4:50   72.7    12    2.4   191      5.6   914.9    0.00    3708    87.5
 245    5:00   71.7    13    2.0   220      2.6   915.1    0.00    3701    87.3
 245    5:10   70.8    13    2.7   216      3.9   915.0    0.00    3716    87.2
 245    5:20   70.2    14    3.3   228      4.7   915.0    0.00    3721    87.0
 245    5:30   70.6    13    3.6   210      5.8   915.1    0.00    3719    86.8
 245    5:40   72.4    12    4.3   230      6.1   915.3    0.00    3730    86.7
 245    5:50   73.6    12    3.3   195      6.0   915.6    0.00    3719    86.5
 245    6:00   74.3    12    3.3   158      6.1   915.9    0.00    3702    86.4
 245    6:10   74.7    12    3.5   199      6.1   916.0    0.00    3730    86.2
 245    6:20   75.1    12    3.2   241      5.5   916.1    0.00    3722    86.1
 245    6:30   75.7    12    3.0   244      5.2   916.2    0.00    3714    85.9
 245    6:40   76.6    11    5.0   230      9.3   916.3    0.00    3715    85.9
 245    6:50   77.5    11    5.7   198     10.7   916.4    0.00    3701    85.9
 245    7:00   77.9    10    8.2   179     12.2   916.5    0.00    3694    85.9
 245    7:10   78.6    10    6.3   173     10.1   896.2    0.00    3585    85.9
 245    7:20   79.4    10    6.7   177     10.8   882.6    0.00    3453    86.0
 245    7:30   80.2    10    8.0   179     11.8   925.0    0.00    3681    86.1
 245    7:40   80.7    10    7.3   174     11.8   917.1    0.00    3676    86.3
 245    7:50   81.2     9    7.9   185     11.5   888.4    0.00    3610    86.7
 245    8:00   81.7     9    8.6   177     13.9   919.9    0.00    3667    86.8
 245    8:10   82.2     9    7.8   166     12.1   917.4    0.00    3662    87.0
 245    8:20   82.9     9    9.2   170     15.3   917.4    0.00    3659    87.4
 245    8:30   83.9     8    8.1   191     13.8   917.5    0.00    3655    87.7
 245    8:40   84.6     8    7.4   214     14.5   917.7    0.00    3651    88.0
 245    8:50   85.0     8    7.3   196     12.4   917.8    0.00    3649    88.5
 245    9:00   85.2     8    7.1   198     14.2   917.9    0.00    3644    89.0
 245    9:10   85.9     7    7.7   185     12.1   918.0    0.00    3642    89.4

Return to Boulder City, Nevada graphs page.


Western Regional Climate Center,wrcc@dri.edu